createdAt,value
2022-09-25T00:00:51.581Z,13.50
2022-09-25T00:03:18.953Z,13.30
2022-09-25T00:05:47.145Z,13.40
2022-09-25T00:08:16.343Z,13.40
2022-09-25T00:10:45.094Z,13.40
2022-09-25T00:13:11.890Z,13.40
2022-09-25T00:15:45.037Z,13.50
2022-09-25T00:18:11.648Z,13.50
2022-09-25T00:20:38.245Z,13.40
2022-09-25T00:23:04.863Z,13.40
2022-09-25T00:25:31.436Z,13.40
2022-09-25T00:27:58.108Z,13.50
2022-09-25T00:30:24.794Z,13.40
2022-09-25T00:32:51.419Z,13.40
2022-09-25T00:35:18.146Z,13.30
2022-09-25T00:37:44.718Z,13.40
2022-09-25T00:40:11.806Z,13.30
2022-09-25T00:42:38.546Z,13.40
2022-09-25T00:45:13.328Z,13.40
2022-09-25T00:47:49.510Z,13.30
2022-09-25T00:50:39.218Z,13.30
2022-09-25T00:53:37.319Z,13.30
2022-09-25T00:56:05.125Z,13.50
2022-09-25T00:58:35.163Z,13.40
2022-09-25T01:01:01.864Z,13.50
2022-09-25T01:03:28.856Z,13.40
2022-09-25T01:06:00.159Z,13.40
2022-09-25T01:08:28.366Z,13.50
2022-09-25T01:10:55.633Z,13.40
2022-09-25T01:13:22.720Z,13.40
2022-09-25T01:16:28.386Z,13.40
2022-09-25T01:19:13.147Z,13.30
2022-09-25T01:21:50.348Z,13.30
2022-09-25T01:24:41.102Z,13.30
2022-09-25T01:27:29.082Z,13.30
2022-09-25T01:30:15.656Z,13.30
2022-09-25T01:33:12.741Z,13.30
2022-09-25T01:36:01.073Z,13.30
2022-09-25T01:38:35.928Z,13.20
2022-09-25T01:41:09.727Z,13.20
2022-09-25T01:43:47.710Z,13.20
2022-09-25T01:46:26.190Z,13.30
2022-09-25T01:49:27.766Z,13.20
2022-09-25T01:51:56.546Z,13.30
2022-09-25T01:54:34.603Z,13.20
2022-09-25T01:57:07.602Z,13.10
2022-09-25T01:59:54.378Z,13.20
2022-09-25T02:02:26.746Z,13.30
2022-09-25T02:05:15.521Z,13.20
2022-09-25T02:07:48.115Z,13.10
2022-09-25T02:10:23.469Z,13.10
2022-09-25T02:12:54.952Z,13.10
2022-09-25T02:15:31.035Z,13.10
2022-09-25T02:18:23.135Z,13.10
2022-09-25T02:20:58.148Z,13.10
2022-09-25T02:23:34.162Z,13.20
2022-09-25T02:26:07.689Z,13.10
2022-09-25T02:28:34.812Z,13.10
2022-09-25T02:31:05.282Z,13.00
2022-09-25T02:33:32.164Z,13.00
2022-09-25T02:36:01.251Z,13.10
2022-09-25T02:38:29.044Z,13.10
2022-09-25T02:41:00.242Z,13.00
2022-09-25T02:44:00.455Z,13.00
2022-09-25T02:46:43.144Z,13.00
2022-09-25T02:49:31.966Z,13.00
2022-09-25T02:52:05.746Z,13.00
2022-09-25T02:54:44.195Z,12.90
2022-09-25T02:57:32.287Z,12.90
2022-09-25T03:00:04.279Z,12.80
2022-09-25T03:02:35.504Z,12.80
2022-09-25T03:05:04.988Z,12.80
2022-09-25T03:07:52.420Z,12.70
2022-09-25T03:10:20.142Z,12.70
2022-09-25T03:12:46.796Z,12.80
2022-09-25T03:15:13.534Z,12.70
2022-09-25T03:17:40.470Z,12.80
2022-09-25T03:20:09.902Z,12.80
2022-09-25T03:22:37.515Z,12.80
2022-09-25T03:25:05.485Z,12.80
2022-09-25T03:27:32.116Z,12.80
2022-09-25T03:29:58.743Z,12.80
2022-09-25T03:32:25.436Z,12.70
2022-09-25T03:34:52.014Z,12.70
2022-09-25T03:37:18.695Z,12.60
2022-09-25T03:39:45.610Z,12.60
2022-09-25T03:42:13.143Z,12.70
2022-09-25T03:44:39.717Z,12.70
2022-09-25T03:47:06.344Z,12.70
2022-09-25T03:49:32.942Z,12.60
2022-09-25T03:52:00.158Z,12.60
2022-09-25T03:54:26.815Z,12.60
2022-09-25T03:56:53.392Z,12.70
2022-09-25T03:59:20.046Z,12.70
2022-09-25T04:01:47.332Z,12.70
2022-09-25T04:04:14.338Z,12.60
2022-09-25T04:06:40.941Z,12.70
2022-09-25T04:09:07.509Z,12.70
2022-09-25T04:11:34.837Z,12.70
2022-09-25T04:14:01.951Z,12.60
2022-09-25T04:16:31.209Z,12.60
2022-09-25T04:18:58.022Z,12.60
2022-09-25T04:21:24.649Z,12.60
2022-09-25T04:24:09.900Z,12.40
2022-09-25T04:26:36.627Z,12.50
2022-09-25T04:29:03.812Z,12.40
2022-09-25T04:31:31.927Z,12.40
2022-09-25T04:33:58.906Z,12.50
2022-09-25T04:36:25.511Z,12.50
2022-09-25T04:38:52.145Z,12.50
2022-09-25T04:41:20.034Z,12.40
2022-09-25T04:43:47.088Z,12.40
2022-09-25T04:46:21.111Z,12.40
2022-09-25T04:48:49.069Z,12.40
2022-09-25T04:51:15.697Z,12.30
2022-09-25T04:53:42.311Z,12.40
2022-09-25T04:56:15.383Z,12.50
2022-09-25T04:58:50.043Z,12.40
2022-09-25T05:01:18.378Z,12.40
2022-09-25T05:03:53.381Z,12.30
2022-09-25T05:06:20.998Z,12.30
2022-09-25T05:08:49.670Z,12.30
2022-09-25T05:11:19.359Z,12.30
2022-09-25T05:13:49.993Z,12.20
2022-09-25T05:16:16.650Z,12.20
2022-09-25T05:18:43.377Z,12.30
2022-09-25T05:21:10.083Z,12.20
2022-09-25T05:23:36.725Z,12.20
2022-09-25T05:26:03.632Z,12.10
2022-09-25T05:28:31.714Z,12.00
2022-09-25T05:31:03.601Z,12.10
2022-09-25T05:33:31.618Z,12.10
2022-09-25T05:36:06.843Z,12.00
2022-09-25T05:38:35.535Z,12.00
2022-09-25T05:41:06.670Z,11.90
2022-09-25T05:43:34.523Z,11.90
2022-09-25T05:46:01.313Z,11.80
2022-09-25T05:48:27.997Z,11.80
2022-09-25T05:50:56.371Z,11.90
2022-09-25T05:53:24.583Z,11.80
2022-09-25T05:56:00.570Z,11.70
2022-09-25T05:58:28.793Z,11.70
2022-09-25T06:00:55.852Z,11.70
2022-09-25T06:03:22.783Z,11.70
2022-09-25T06:05:49.528Z,11.70
2022-09-25T06:08:16.300Z,11.70
2022-09-25T06:10:43.074Z,11.70
2022-09-25T06:13:09.671Z,11.70
2022-09-25T06:15:39.013Z,11.70
2022-09-25T06:18:07.271Z,11.70
2022-09-25T06:20:37.036Z,11.70
2022-09-25T06:23:03.921Z,11.70
2022-09-25T06:25:36.457Z,11.70
2022-09-25T06:28:03.631Z,11.60
2022-09-25T06:30:35.935Z,11.70
2022-09-25T06:33:10.838Z,11.70
2022-09-25T06:35:44.997Z,11.70
2022-09-25T06:38:12.653Z,11.70
2022-09-25T06:40:41.456Z,11.60
2022-09-25T06:43:15.381Z,11.60
2022-09-25T06:45:43.145Z,11.60
2022-09-25T06:48:13.024Z,11.60
2022-09-25T06:50:56.920Z,11.70
2022-09-25T06:53:25.656Z,11.60
2022-09-25T06:55:54.028Z,11.50
2022-09-25T06:58:23.429Z,11.60
2022-09-25T07:00:52.016Z,11.50
2022-09-25T07:03:38.054Z,11.60
2022-09-25T07:06:07.197Z,11.70
2022-09-25T07:08:34.047Z,11.70
2022-09-25T07:11:01.939Z,11.70
2022-09-25T07:13:31.510Z,11.70
2022-09-25T07:16:02.435Z,11.70
2022-09-25T07:18:30.375Z,11.80
2022-09-25T07:21:06.259Z,11.80
2022-09-25T07:23:33.725Z,11.80
2022-09-25T07:26:12.453Z,11.90
2022-09-25T07:28:40.703Z,11.90
2022-09-25T07:31:21.859Z,12.00
2022-09-25T07:33:48.889Z,12.00
2022-09-25T07:36:17.314Z,12.00
2022-09-25T07:38:46.044Z,12.10
2022-09-25T07:41:13.547Z,12.10
2022-09-25T07:43:43.615Z,12.10
2022-09-25T07:46:11.304Z,12.20
2022-09-25T07:48:38.117Z,12.40
2022-09-25T07:51:08.441Z,12.30
2022-09-25T07:53:35.227Z,12.30
2022-09-25T07:56:06.437Z,12.40
2022-09-25T07:58:35.024Z,12.30
2022-09-25T08:01:05.636Z,12.50
2022-09-25T08:03:32.474Z,12.50
2022-09-25T08:06:09.556Z,12.50
2022-09-25T08:08:36.282Z,12.60
2022-09-25T08:11:06.621Z,12.70
2022-09-25T08:13:34.239Z,12.70
2022-09-25T08:16:13.198Z,12.70
2022-09-25T08:18:45.349Z,12.80
2022-09-25T08:21:14.205Z,12.90
2022-09-25T08:23:45.401Z,12.90
2022-09-25T08:26:15.199Z,13.00
2022-09-25T08:28:41.915Z,13.00
2022-09-25T08:31:08.797Z,13.10
2022-09-25T08:33:35.928Z,13.10
2022-09-25T08:36:05.113Z,13.20
2022-09-25T08:38:34.947Z,13.30
2022-09-25T08:41:03.802Z,13.30
2022-09-25T08:43:33.366Z,13.30
2022-09-25T08:46:22.002Z,13.40
2022-09-25T08:49:12.646Z,13.40
2022-09-25T08:51:44.138Z,13.40
2022-09-25T08:54:19.570Z,13.50
2022-09-25T08:56:50.757Z,13.60
2022-09-25T08:59:23.059Z,13.60
2022-09-25T09:01:54.744Z,13.70
2022-09-25T09:04:42.990Z,13.60
2022-09-25T09:07:29.700Z,13.60
2022-09-25T09:10:37.507Z,13.80
2022-09-25T09:13:19.042Z,13.80
2022-09-25T09:16:07.871Z,13.80
2022-09-25T09:18:39.508Z,13.90
2022-09-25T09:21:33.607Z,14.00
2022-09-25T09:24:06.196Z,14.00
2022-09-25T09:27:01.387Z,14.20
2022-09-25T09:29:48.917Z,14.30
2022-09-25T09:32:27.525Z,14.50
2022-09-25T09:35:07.253Z,14.70
2022-09-25T09:37:55.760Z,14.60
2022-09-25T09:40:43.305Z,14.80
2022-09-25T09:43:30.757Z,14.80
2022-09-25T09:46:15.194Z,14.60
2022-09-25T09:49:02.052Z,14.70
2022-09-25T09:51:57.624Z,14.90
2022-09-25T09:54:43.858Z,15.10
2022-09-25T09:57:17.804Z,15.30
2022-09-25T09:59:53.305Z,15.30
2022-09-25T10:02:29.057Z,15.50
2022-09-25T10:04:57.335Z,15.50
2022-09-25T10:07:25.446Z,15.50
2022-09-25T10:09:54.445Z,15.30
2022-09-25T10:12:41.994Z,14.90
2022-09-25T10:15:19.461Z,15.00
2022-09-25T10:17:46.909Z,15.10
2022-09-25T10:20:20.566Z,15.00
2022-09-25T10:22:48.865Z,14.90
2022-09-25T10:25:34.406Z,15.00
2022-09-25T10:28:05.333Z,15.00
2022-09-25T10:30:32.607Z,15.00
2022-09-25T10:33:18.467Z,14.90
2022-09-25T10:35:46.237Z,14.80
2022-09-25T10:38:32.597Z,14.90
2022-09-25T10:41:13.350Z,14.90
2022-09-25T10:43:50.701Z,15.10
2022-09-25T10:47:03.124Z,15.40
2022-09-25T10:49:48.428Z,15.40
2022-09-25T10:52:19.420Z,15.70
2022-09-25T10:54:46.438Z,15.70
2022-09-25T10:57:38.245Z,16.00
2022-09-25T11:00:20.020Z,16.00
2022-09-25T11:02:47.504Z,15.90
2022-09-25T11:05:19.924Z,16.10
2022-09-25T11:07:58.694Z,16.10
2022-09-25T11:10:33.789Z,16.30
2022-09-25T11:13:07.526Z,16.40
2022-09-25T11:15:36.461Z,16.40
2022-09-25T11:18:06.182Z,15.90
2022-09-25T11:20:33.085Z,15.50
2022-09-25T11:23:08.613Z,15.50
2022-09-25T11:25:58.467Z,15.80
2022-09-25T11:28:34.933Z,16.00
2022-09-25T11:31:04.699Z,16.10
2022-09-25T11:33:50.199Z,16.40
2022-09-25T11:36:23.956Z,16.80
2022-09-25T11:39:21.983Z,16.90
2022-09-25T11:41:54.350Z,17.20
2022-09-25T11:44:34.083Z,17.00
2022-09-25T11:47:23.086Z,17.10
2022-09-25T11:49:52.003Z,17.00
2022-09-25T11:52:23.010Z,16.50
2022-09-25T11:55:17.686Z,16.30
2022-09-25T11:57:58.260Z,16.00
2022-09-25T12:00:38.366Z,15.90
2022-09-25T12:03:18.965Z,15.80
2022-09-25T12:06:06.488Z,15.90
2022-09-25T12:08:55.611Z,15.90
2022-09-25T12:11:27.108Z,16.10
2022-09-25T12:14:09.846Z,16.50
2022-09-25T12:16:46.444Z,16.40
2022-09-25T12:19:24.434Z,16.40
2022-09-25T12:22:26.166Z,17.00
2022-09-25T12:25:10.272Z,17.10
2022-09-25T12:27:42.086Z,17.50
2022-09-25T12:30:22.757Z,17.50
2022-09-25T12:33:10.042Z,17.50
2022-09-25T12:35:39.778Z,17.20
2022-09-25T12:38:31.992Z,17.00
2022-09-25T12:41:11.711Z,16.90
2022-09-25T12:43:43.122Z,16.70
2022-09-25T12:46:19.258Z,16.70
2022-09-25T12:49:13.178Z,16.70
2022-09-25T12:51:50.709Z,17.20
2022-09-25T12:54:52.811Z,17.40
2022-09-25T12:57:26.551Z,17.80
2022-09-25T13:00:03.202Z,17.90
2022-09-25T13:02:43.927Z,17.70
2022-09-25T13:05:33.964Z,17.90
2022-09-25T13:08:23.466Z,18.40
2022-09-25T13:11:06.083Z,18.70
2022-09-25T13:13:40.047Z,18.60
2022-09-25T13:16:06.851Z,18.90
2022-09-25T13:18:35.853Z,19.20
2022-09-25T13:21:42.159Z,19.40
2022-09-25T13:24:14.087Z,19.60
2022-09-25T13:27:04.704Z,19.20
2022-09-25T13:29:38.764Z,18.80
2022-09-25T13:32:23.014Z,18.10
2022-09-25T13:34:56.741Z,17.80
2022-09-25T13:37:33.243Z,17.50
2022-09-25T13:40:30.701Z,17.70
2022-09-25T13:43:24.292Z,17.90
2022-09-25T13:46:23.379Z,17.70
2022-09-25T13:48:52.254Z,17.60
2022-09-25T13:51:21.944Z,17.90
2022-09-25T13:53:58.978Z,17.80
2022-09-25T13:56:40.877Z,17.70
2022-09-25T13:59:12.192Z,17.70
2022-09-25T14:01:41.809Z,18.30
2022-09-25T14:04:22.379Z,18.90
2022-09-25T14:06:54.525Z,18.30
2022-09-25T14:09:24.363Z,18.20
2022-09-25T14:12:01.294Z,17.90
2022-09-25T14:14:54.991Z,17.70
2022-09-25T14:17:24.760Z,17.40
2022-09-25T14:19:53.815Z,17.30
2022-09-25T14:22:29.852Z,17.50
2022-09-25T14:24:56.560Z,17.40
2022-09-25T14:27:26.417Z,17.40
2022-09-25T14:30:01.820Z,18.00
2022-09-25T14:32:59.007Z,18.20
2022-09-25T14:35:35.931Z,18.80
2022-09-25T14:38:36.910Z,19.20
2022-09-25T14:41:12.564Z,19.60
2022-09-25T14:43:48.059Z,19.90
2022-09-25T14:46:22.285Z,19.90
2022-09-25T14:49:00.742Z,19.90
2022-09-25T14:51:40.944Z,19.40
2022-09-25T14:54:15.287Z,19.70
2022-09-25T14:56:48.340Z,19.80
2022-09-25T14:59:24.309Z,20.00
2022-09-25T15:01:52.817Z,20.00
2022-09-25T15:04:38.295Z,19.90
2022-09-25T15:07:07.739Z,20.20
2022-09-25T15:09:47.151Z,20.50
2022-09-25T15:12:29.179Z,20.60
2022-09-25T15:15:03.495Z,20.30
2022-09-25T15:17:32.313Z,20.20
2022-09-25T15:20:02.902Z,20.10
2022-09-25T15:22:34.111Z,20.00
2022-09-25T15:25:04.365Z,20.40
2022-09-25T15:27:31.366Z,20.60
2022-09-25T15:30:00.158Z,20.60
2022-09-25T15:32:30.817Z,20.00
2022-09-25T15:35:19.415Z,19.30
2022-09-25T15:37:46.713Z,18.90
2022-09-25T15:40:28.714Z,18.60
2022-09-25T15:42:55.871Z,18.40
2022-09-25T15:45:39.194Z,18.30
2022-09-25T15:48:10.510Z,18.10
2022-09-25T15:50:42.286Z,18.00
2022-09-25T15:53:19.127Z,18.00
2022-09-25T15:55:46.362Z,18.60
2022-09-25T15:58:16.584Z,18.80
2022-09-25T16:01:20.316Z,19.30
2022-09-25T16:04:10.642Z,19.60
2022-09-25T16:06:42.848Z,19.80
2022-09-25T16:09:30.456Z,19.60
2022-09-25T16:12:35.368Z,19.90
2022-09-25T16:15:26.099Z,20.00
2022-09-25T16:18:23.240Z,20.20
2022-09-25T16:21:20.868Z,19.90
2022-09-25T16:23:56.146Z,19.30
2022-09-25T16:26:27.031Z,18.90
2022-09-25T16:29:03.334Z,18.60
2022-09-25T16:31:30.507Z,18.60
2022-09-25T16:33:57.446Z,18.30
2022-09-25T16:36:27.183Z,18.20
2022-09-25T16:39:12.114Z,18.20
2022-09-25T16:41:44.036Z,18.00
2022-09-25T16:44:20.202Z,17.80
2022-09-25T16:47:05.925Z,17.60
2022-09-25T16:49:34.087Z,17.40
2022-09-25T16:52:03.824Z,17.20
2022-09-25T16:54:32.659Z,17.10
2022-09-25T16:57:00.210Z,17.00
2022-09-25T16:59:28.311Z,17.00
2022-09-25T17:02:00.389Z,17.00
2022-09-25T17:04:30.094Z,16.70
2022-09-25T17:06:59.790Z,16.70
2022-09-25T17:09:28.571Z,16.70
2022-09-25T17:12:10.350Z,16.60
2022-09-25T17:14:37.117Z,16.50
2022-09-25T17:17:03.761Z,16.50
2022-09-25T17:19:30.460Z,16.40
2022-09-25T17:21:57.963Z,16.30
2022-09-25T17:24:27.117Z,16.20
2022-09-25T17:26:54.395Z,16.00
2022-09-25T17:29:21.965Z,16.10
2022-09-25T17:31:48.919Z,16.00
2022-09-25T17:34:28.426Z,15.90
2022-09-25T17:36:55.322Z,15.80
2022-09-25T17:39:21.924Z,15.80
2022-09-25T17:41:48.711Z,15.70
2022-09-25T17:44:19.282Z,15.70
2022-09-25T17:46:46.009Z,15.80
2022-09-25T17:49:13.352Z,15.80
2022-09-25T17:51:40.769Z,15.60
2022-09-25T17:54:07.832Z,15.40
2022-09-25T17:56:34.838Z,15.30
2022-09-25T17:59:02.103Z,15.50
2022-09-25T18:01:34.229Z,15.40
2022-09-25T18:04:23.847Z,15.40
2022-09-25T18:06:51.312Z,15.40
2022-09-25T18:09:18.507Z,15.30
2022-09-25T18:11:45.240Z,15.20
2022-09-25T18:14:13.738Z,15.20
2022-09-25T18:16:42.657Z,15.10
2022-09-25T18:19:36.733Z,15.20
2022-09-25T18:22:21.333Z,15.10
2022-09-25T18:24:52.712Z,15.20
2022-09-25T18:27:19.991Z,15.20
2022-09-25T18:29:47.304Z,15.10
2022-09-25T18:32:14.727Z,15.00
2022-09-25T18:34:42.614Z,14.90
2022-09-25T18:37:09.897Z,14.80
2022-09-25T18:39:37.192Z,14.80
2022-09-25T18:42:04.501Z,14.70
2022-09-25T18:44:38.462Z,14.60
2022-09-25T18:47:07.125Z,14.50
2022-09-25T18:49:33.801Z,14.60
2022-09-25T18:52:00.550Z,14.40
2022-09-25T18:54:27.866Z,14.50
2022-09-25T18:56:54.702Z,14.60
2022-09-25T18:59:26.400Z,14.70
2022-09-25T19:01:55.603Z,14.60
2022-09-25T19:04:22.943Z,14.50
2022-09-25T19:06:49.613Z,14.40
2022-09-25T19:09:17.491Z,14.40
2022-09-25T19:11:45.338Z,14.30
2022-09-25T19:14:14.628Z,14.40
2022-09-25T19:16:41.293Z,14.30
2022-09-25T19:19:08.200Z,14.20
2022-09-25T19:21:35.349Z,14.10
2022-09-25T19:24:02.158Z,14.00
2022-09-25T19:26:28.998Z,13.90
2022-09-25T19:28:55.635Z,13.90
2022-09-25T19:31:24.646Z,13.80
2022-09-25T19:33:52.528Z,13.90
2022-09-25T19:36:24.744Z,13.70
2022-09-25T19:38:51.493Z,13.80
2022-09-25T19:41:30.216Z,13.70
2022-09-25T19:43:59.069Z,13.80
2022-09-25T19:46:27.442Z,13.80
2022-09-25T19:48:54.645Z,13.70
2022-09-25T19:51:22.840Z,13.50
2022-09-25T19:53:50.491Z,13.60
2022-09-25T19:56:19.108Z,13.60
2022-09-25T19:58:50.965Z,13.60
2022-09-25T20:01:27.302Z,13.40
2022-09-25T20:03:57.887Z,13.50
2022-09-25T20:06:25.996Z,13.60
2022-09-25T20:09:00.803Z,13.50
2022-09-25T20:11:28.272Z,13.50
2022-09-25T20:13:55.115Z,13.50
2022-09-25T20:16:27.665Z,13.50
2022-09-25T20:18:57.178Z,13.50
2022-09-25T20:21:28.587Z,13.40
2022-09-25T20:23:57.359Z,13.30
2022-09-25T20:26:24.290Z,13.30
2022-09-25T20:28:53.338Z,13.20
2022-09-25T20:31:20.519Z,13.30
2022-09-25T20:33:47.385Z,13.10
2022-09-25T20:36:15.282Z,13.10
2022-09-25T20:38:42.493Z,12.90
2022-09-25T20:41:11.281Z,12.90
2022-09-25T20:43:38.610Z,13.00
2022-09-25T20:46:08.163Z,13.00
2022-09-25T20:48:37.420Z,12.90
2022-09-25T20:51:05.521Z,12.90
2022-09-25T20:53:32.222Z,13.00
2022-09-25T20:56:13.356Z,13.00
2022-09-25T20:58:41.625Z,12.90
2022-09-25T21:01:11.167Z,12.70
2022-09-25T21:03:41.128Z,12.80
2022-09-25T21:06:15.282Z,12.90
2022-09-25T21:08:41.908Z,12.80
2022-09-25T21:11:10.426Z,12.90
2022-09-25T21:13:38.280Z,12.80
2022-09-25T21:16:09.862Z,12.70
2022-09-25T21:18:37.160Z,12.60
2022-09-25T21:21:06.508Z,12.60
2022-09-25T21:23:33.506Z,12.70
2022-09-25T21:26:11.731Z,12.70
2022-09-25T21:28:43.279Z,12.80
2022-09-25T21:31:16.054Z,12.70
2022-09-25T21:33:43.530Z,12.70
2022-09-25T21:36:15.426Z,12.80
2022-09-25T21:38:42.967Z,12.70
2022-09-25T21:41:12.671Z,12.50
2022-09-25T21:43:40.290Z,12.50
2022-09-25T21:46:10.590Z,12.60
2022-09-25T21:48:39.218Z,12.60
2022-09-25T21:51:07.841Z,12.60
2022-09-25T21:53:34.966Z,12.80
2022-09-25T21:56:06.871Z,12.90
2022-09-25T21:58:33.914Z,12.90
2022-09-25T22:01:07.947Z,12.70
2022-09-25T22:03:36.466Z,12.70
2022-09-25T22:06:06.494Z,12.70
2022-09-25T22:08:36.484Z,12.50
2022-09-25T22:11:04.385Z,12.70
2022-09-25T22:13:34.093Z,12.60
2022-09-25T22:16:09.198Z,12.60
2022-09-25T22:18:46.290Z,12.60
2022-09-25T22:21:15.341Z,12.40
2022-09-25T22:23:42.443Z,12.40
2022-09-25T22:26:09.588Z,12.50
2022-09-25T22:28:37.396Z,12.50
2022-09-25T22:31:06.695Z,12.20
2022-09-25T22:33:34.550Z,12.30
2022-09-25T22:36:03.955Z,12.30
2022-09-25T22:38:31.384Z,12.40
2022-09-25T22:41:03.718Z,12.40
2022-09-25T22:43:30.344Z,12.50
2022-09-25T22:45:57.433Z,12.50
2022-09-25T22:48:24.151Z,12.50
2022-09-25T22:51:02.114Z,12.40
2022-09-25T22:53:30.916Z,12.50
2022-09-25T22:56:14.571Z,12.50
2022-09-25T22:58:42.574Z,12.40
2022-09-25T23:01:12.411Z,12.40
2022-09-25T23:03:39.362Z,12.50
2022-09-25T23:06:06.338Z,12.30
2022-09-25T23:08:33.455Z,12.30
2022-09-25T23:11:08.342Z,12.10
2022-09-25T23:13:36.365Z,12.10
2022-09-25T23:16:07.897Z,12.30
2022-09-25T23:18:36.240Z,12.10
2022-09-25T23:21:03.213Z,12.10
2022-09-25T23:23:29.887Z,12.10
2022-09-25T23:26:07.941Z,12.20
2022-09-25T23:28:36.672Z,12.20
2022-09-25T23:31:10.379Z,12.20
2022-09-25T23:33:37.868Z,12.20
2022-09-25T23:36:07.270Z,12.00
2022-09-25T23:38:34.924Z,12.00
2022-09-25T23:41:02.555Z,12.00
2022-09-25T23:43:29.574Z,12.00
2022-09-25T23:45:56.225Z,12.00
2022-09-25T23:48:23.127Z,12.20
2022-09-25T23:50:51.183Z,11.90
2022-09-25T23:53:18.110Z,12.00
2022-09-25T23:55:44.933Z,12.10
2022-09-25T23:58:12.186Z,12.10
